Miley Memorial field
KBPI : now visible

Airfield :











YOU CAN JOIN US ON...

 
LOGIN :

Register | Disclaimer

   EN    FR    IT 

 









Legend :    VFR   Marginal VFR   IFR   Intensive IFR   Very Intensive IFR
Visi :
Ceiling :
>= 8 km
>= 3000ft
5 to 8 km
1000 to 3000 ft
1500m to 5 km
500 to 1000 ft
800 to 1500m
200 to 500 ft
< 800m
< 200 ft
Symbols :   Thunderstorms  Fog  Heavy snow  Heavy precipitations  Wind > 20 kt






- Airport Elevation : 6990 ft


KBPI - Miley Memorial field

CURRENT METAR :
  • 190753Z AUTO 00000KT 10SM CLR M01/M10 A3018 RMK AO2 SLP185 T10111100

EXPIRED METARs :
  • 190653Z AUTO 31003KT 10SM CLR 02/M07 A3018 RMK AO2 SLP184 T00171072 401501022
  • 190553Z AUTO 34008KT 10SM CLR 03/M09 A3017 RMK AO2 SLP179 T00281089 10139 20028 51012
  • 190453Z AUTO 34007KT 10SM CLR 04/M10 A3016 RMK AO2 SLP177 T00391100
  • 190353Z AUTO 04008KT 10SM CLR 06/M10 A3015 RMK AO2 SLP175 T00561100

TAF KBPI
Valid from the 19 at 06:00 until the 20 at 06:00 UTC


190520Z 1906/2006 36008KT P6SM SCT210
FM191300 VRB05KT P6SM SCT120
FM200300 35006KT P6SM BKN150
KZLC FIR / North America



MET'MAP, your aeronautical weather chart ! - Copyright ORBIFLY December 2007 - Disclaimer

ORBIFLY MET'MAP TEAM :

Programming & Development : Alexandra Zaïnal
Original concept : Baudouin d'Aumeries
Technical & hardware support : Manuel Goepfert
Assistance : Marc-Olivier Méhu




SOURCES & CREDITS :

   NOAA       Earth
Advisory